Time;durP1;ratioP1;P1;durP2;ratioP2;P2;SDS_P1;SDS_P2;PMS_P1;PMS_P2;Temp;Humidity;BMP_temperature;BMP_pressure;BME280_temperature;BME280_humidity;BME280_pressure;Samples;Min_cycle;Max_cycle;Signal;HPM_P1;HPM_P2
2023/05/24 00:01:01;;;;;;;12.82;8.77;;;;;;;14.13;79.34;94870.84;5010280;28;20210;-61
2023/05/24 00:03:29;;;;;;;11.13;8.00;;;;;;;14.06;80.47;94869.53;5010300;28;20297;-59
2023/05/24 00:05:56;;;;;;;9.77;7.97;;;;;;;14.01;80.81;94868.09;5009331;28;20206;-60
2023/05/24 00:08:22;;;;;;;8.57;7.75;;;;;;;14.04;80.37;94868.78;5013795;28;20816;-59
2023/05/24 00:10:49;;;;;;;12.75;8.18;;;;;;;14.03;80.34;94859.47;5014652;28;20298;-63
2023/05/24 00:13:16;;;;;;;11.27;8.07;;;;;;;14.08;80.24;94857.50;5013759;28;20266;-59
2023/05/24 00:15:44;;;;;;;9.60;7.82;;;;;;;14.04;80.50;94868.78;5013668;28;20206;-59
2023/05/24 00:18:10;;;;;;;9.20;6.78;;;;;;;14.01;80.82;94860.44;5014301;28;20301;-57
2023/05/24 00:20:37;;;;;;;10.25;7.97;;;;;;;13.98;80.29;94869.06;5009807;28;20285;-60
2023/05/24 00:23:04;;;;;;;8.40;7.55;;;;;;;13.97;80.42;94864.88;5008640;28;20321;-57
2023/05/24 00:25:30;;;;;;;8.93;7.07;;;;;;;13.87;80.48;94848.31;5009779;28;20816;-58
2023/05/24 00:27:57;;;;;;;10.25;7.50;;;;;;;13.95;80.24;94861.56;5013869;28;20208;-58
2023/05/24 00:30:24;;;;;;;10.13;7.47;;;;;;;13.82;80.70;94851.13;5023299;28;20375;-62
2023/05/24 00:32:52;;;;;;;10.00;6.88;;;;;;;13.79;80.03;94845.34;5042789;28;20688;-59
2023/05/24 00:35:19;;;;;;;8.43;7.57;;;;;;;13.75;80.61;94849.78;5042199;28;20297;-57
2023/05/24 00:37:45;;;;;;;6.75;6.15;;;;;;;13.57;80.52;94851.50;5034350;28;20569;-61
2023/05/24 00:40:12;;;;;;;9.45;6.57;;;;;;;13.61;80.49;94845.31;5023235;28;20230;-58
2023/05/24 00:42:39;;;;;;;7.57;6.75;;;;;;;13.52;80.70;94843.25;5042564;28;20293;-60
2023/05/24 00:45:07;;;;;;;9.10;6.97;;;;;;;13.51;80.45;94843.31;5041469;28;20778;-60
2023/05/24 00:47:34;;;;;;;8.13;7.25;;;;;;;13.42;80.94;94846.31;5038319;28;20289;-60
2023/05/24 00:50:02;;;;;;;7.10;6.50;;;;;;;13.53;80.08;94852.56;5041565;28;20312;-59
2023/05/24 00:52:29;;;;;;;12.38;6.75;;;;;;;13.60;80.28;94851.38;5042885;28;20203;-58
2023/05/24 00:54:56;;;;;;;7.13;6.28;;;;;;;13.53;80.42;94855.09;5041934;28;21342;-61
2023/05/24 00:57:23;;;;;;;7.43;6.72;;;;;;;13.55;79.85;94853.31;5043029;28;20293;-61
2023/05/24 00:59:51;;;;;;;10.95;6.18;;;;;;;13.56;79.70;94849.03;5042189;28;20202;-60
2023/05/24 01:02:17;;;;;;;7.13;6.47;;;;;;;13.65;79.78;94848.56;5041542;28;20239;-61
2023/05/24 01:04:44;;;;;;;6.55;5.95;;;;;;;13.58;79.20;94853.16;5040702;28;20267;-61
2023/05/24 01:07:22;;;;;;;9.85;6.78;;;;;;;13.46;80.15;94848.63;5040215;28;20293;-60
2023/05/24 01:09:59;;;;;;;5.95;5.45;;;;;;;13.52;79.94;94848.34;5041954;28;20230;-60
2023/05/24 01:12:32;;;;;;;6.35;5.45;;;;;;;13.45;80.55;94869.13;5040970;28;20230;-60
2023/05/24 01:15:09;;;;;;;6.82;6.22;;;;;;;13.33;80.58;94857.78;5040830;28;20206;-60
2023/05/24 01:17:47;;;;;;;6.45;5.85;;;;;;;13.33;81.13;94862.06;5040752;28;20621;-61
2023/05/24 01:20:17;;;;;;;7.32;5.85;;;;;;;13.25;81.36;94859.88;5038956;28;20206;-58
2023/05/24 01:23:10;;;;;;;7.32;6.72;;;;;;;13.13;81.84;94860.41;5039924;28;21594;-59
2023/05/24 01:26:00;;;;;;;9.25;6.60;;;;;;;13.13;81.78;94871.44;5030390;28;20754;-62
2023/05/24 01:28:31;;;;;;;6.13;5.70;;;;;;;13.15;81.68;94859.47;5039461;28;20229;-60
2023/05/24 01:30:59;;;;;;;6.60;6.00;;;;;;;13.20;81.80;94865.19;5040253;28;20529;-60
2023/05/24 01:33:27;;;;;;;6.68;5.93;;;;;;;13.12;82.02;94866.41;5041612;28;20206;-60
2023/05/24 01:35:53;;;;;;;8.07;6.95;;;;;;;13.12;81.90;94868.94;5041204;28;21166;-59
2023/05/24 01:38:20;;;;;;;11.70;6.80;;;;;;;13.15;81.67;94867.13;5041527;28;20645;-59
2023/05/24 01:40:52;;;;;;;10.00;6.85;;;;;;;13.09;82.41;94866.56;5040478;28;20303;-58
2023/05/24 01:43:31;;;;;;;9.23;5.80;;;;;;;13.13;82.41;94860.41;5042354;28;20659;-59
2023/05/24 01:46:06;;;;;;;7.47;6.75;;;;;;;13.13;81.69;94853.56;5042640;28;20205;-60
2023/05/24 01:48:42;;;;;;;13.13;6.38;;;;;;;12.99;81.71;94855.13;5038857;28;20220;-62
2023/05/24 01:51:10;;;;;;;9.05;5.95;;;;;;;12.91;81.88;94856.28;5040689;28;20397;-61
2023/05/24 01:53:45;;;;;;;8.38;6.35;;;;;;;13.02;81.55;94860.09;5040500;28;21099;-60
2023/05/24 01:56:13;;;;;;;7.40;6.70;;;;;;;13.07;81.22;94858.16;5042964;28;20198;-62
2023/05/24 01:58:41;;;;;;;7.45;6.75;;;;;;;13.07;81.00;94855.59;5041775;28;20289;-61
2023/05/24 02:01:10;;;;;;;8.82;7.93;;;;;;;13.03;81.41;94852.38;5042344;28;20206;-60
2023/05/24 02:03:37;;;;;;;9.35;6.82;;;;;;;13.01;81.51;94855.88;5041620;28;20206;-57
2023/05/24 02:06:04;;;;;;;9.27;6.90;;;;;;;13.02;81.80;94854.97;5042386;28;20208;-60
2023/05/24 02:08:31;;;;;;;9.35;6.70;;;;;;;13.05;81.15;94850.56;5042797;28;20293;-62
2023/05/24 02:10:58;;;;;;;10.07;7.40;;;;;;;13.01;82.08;94850.78;5042004;28;20356;-59
2023/05/24 02:13:25;;;;;;;7.95;7.20;;;;;;;13.07;82.04;94853.06;5042496;28;20314;-60
2023/05/24 02:15:52;;;;;;;10.38;7.22;;;;;;;13.13;81.48;94850.19;5042203;28;20464;-60
2023/05/24 02:18:21;;;;;;;9.73;7.20;;;;;;;13.05;81.66;94842.09;5043945;28;20737;-61
2023/05/24 02:20:48;;;;;;;9.45;6.38;;;;;;;13.01;82.29;94845.69;5045147;28;20765;-58
2023/05/24 02:23:15;;;;;;;10.02;7.65;;;;;;;13.00;82.09;94849.13;5045623;28;20297;-60
2023/05/24 02:25:41;;;;;;;7.93;7.13;;;;;;;12.99;81.97;94842.38;5044347;28;20954;-60
2023/05/24 02:28:08;;;;;;;7.80;7.00;;;;;;;12.96;82.57;94843.34;5045131;28;20210;-59
2023/05/24 02:30:35;;;;;;;15.90;7.25;;;;;;;12.92;82.65;94842.66;5045065;28;20227;-60
2023/05/24 02:33:02;;;;;;;8.95;8.18;;;;;;;12.98;82.06;94840.72;5045800;28;20237;-62
2023/05/24 02:35:31;;;;;;;8.77;6.82;;;;;;;13.00;82.24;94838.91;5044769;28;20210;-60
2023/05/24 02:37:58;;;;;;;9.85;6.60;;;;;;;13.03;81.78;94833.69;5045125;28;20229;-60
2023/05/24 02:40:25;;;;;;;7.63;6.85;;;;;;;12.97;82.25;94839.88;5045234;28;20199;-61
2023/05/24 02:42:51;;;;;;;11.18;8.73;;;;;;;12.90;82.52;94853.81;5042392;28;20339;-58
2023/05/24 02:45:18;;;;;;;8.77;7.43;;;;;;;12.89;82.60;94845.34;5038363;28;20329;-60
2023/05/24 02:47:45;;;;;;;8.07;7.20;;;;;;;12.85;82.80;94846.41;5044328;28;20297;-58
2023/05/24 02:50:12;;;;;;;11.77;7.50;;;;;;;12.87;82.51;94854.78;5033734;28;20599;-60
2023/05/24 02:52:40;;;;;;;7.50;6.38;;;;;;;12.89;82.58;94852.97;5040669;28;20329;-59
2023/05/24 02:55:07;;;;;;;8.20;7.03;;;;;;;12.92;82.42;94850.28;5038006;28;20338;-60
2023/05/24 02:57:34;;;;;;;9.32;7.25;;;;;;;12.92;81.92;94845.19;5040016;28;20293;-60
2023/05/24 03:00:01;;;;;;;11.00;6.57;;;;;;;12.92;82.01;94857.94;5039879;28;20290;-61
2023/05/24 03:02:28;;;;;;;7.70;7.00;;;;;;;12.94;82.42;94861.25;5039666;28;20738;-57
2023/05/24 03:04:54;;;;;;;9.75;6.82;;;;;;;12.94;81.90;94861.25;5037390;28;20213;-61
2023/05/24 03:07:21;;;;;;;9.82;7.60;;;;;;;12.86;82.57;94860.81;5045865;28;20275;-61
2023/05/24 03:09:49;;;;;;;10.70;7.93;;;;;;;12.89;82.12;94863.19;5037682;28;20219;-61
2023/05/24 03:12:16;;;;;;;7.72;6.93;;;;;;;12.95;82.19;94864.63;5043183;28;20325;-59
2023/05/24 03:14:42;;;;;;;15.68;7.90;;;;;;;12.98;82.01;94867.06;5043691;28;20324;-58
2023/05/24 03:17:09;;;;;;;9.30;7.63;;;;;;;13.08;82.00;94864.91;5045367;28;20321;-60
2023/05/24 03:19:36;;;;;;;8.70;7.90;;;;;;;13.26;81.19;94866.63;5045587;28;20341;-59
2023/05/24 03:22:03;;;;;;;10.07;7.82;;;;;;;13.24;80.78;94873.53;5044469;28;20225;-59
2023/05/24 03:24:30;;;;;;;15.40;8.52;;;;;;;13.27;81.34;94870.84;5045826;28;20213;-59
2023/05/24 03:26:58;;;;;;;10.02;7.30;;;;;;;13.53;80.82;94875.53;5044901;28;20683;-59
2023/05/24 03:29:25;;;;;;;8.13;7.40;;;;;;;14.00;79.42;94874.09;5043758;28;20388;-59
2023/05/24 03:31:52;;;;;;;13.43;8.00;;;;;;;14.70;77.30;94876.47;5044532;28;20297;-59
2023/05/24 03:34:18;;;;;;;8.68;7.15;;;;;;;15.48;74.48;94874.81;5044581;28;20202;-59
2023/05/24 03:36:45;;;;;;;10.48;6.57;;;;;;;15.92;72.15;94880.00;5044029;28;20253;-59
2023/05/24 03:39:11;;;;;;;12.57;6.63;;;;;;;15.99;71.21;94876.19;5045320;28;20297;-60
2023/05/24 03:41:38;;;;;;;9.07;6.53;;;;;;;16.03;70.41;94881.97;5044521;28;20294;-60
2023/05/24 03:44:06;;;;;;;8.80;6.88;;;;;;;16.07;70.61;94889.41;5045040;28;20240;-59
2023/05/24 03:46:33;;;;;;;12.38;7.32;;;;;;;16.17;69.20;94876.84;5044021;28;20206;-62
2023/05/24 03:48:59;;;;;;;15.55;7.45;;;;;;;16.57;68.20;94878.75;5043134;28;20234;-60
2023/05/24 03:51:28;;;;;;;9.52;6.95;;;;;;;17.00;66.58;94876.97;5044465;28;20313;-60
2023/05/24 03:53:55;;;;;;;7.57;6.88;;;;;;;17.23;65.56;94877.31;5044318;28;20210;-60
2023/05/24 03:56:22;;;;;;;8.43;6.60;;;;;;;17.31;65.25;94881.06;5044924;28;20217;-60
2023/05/24 03:58:49;;;;;;;10.38;7.18;;;;;;;17.38;65.06;94883.22;5044672;28;20291;-61
2023/05/24 04:01:17;;;;;;;10.77;7.47;;;;;;;17.43;64.44;94882.00;5043765;28;20222;-59
2023/05/24 04:03:44;;;;;;;9.75;6.82;;;;;;;17.43;64.44;94883.75;5044123;28;20268;-63
2023/05/24 04:06:11;;;;;;;11.35;7.22;;;;;;;17.55;63.96;94881.25;5043894;28;20213;-60
2023/05/24 04:08:38;;;;;;;8.75;6.75;;;;;;;17.73;63.66;94886.16;5044693;28;20289;-60
2023/05/24 04:11:05;;;;;;;8.57;6.75;;;;;;;18.06;62.46;94878.00;5044423;28;20367;-59
2023/05/24 04:13:31;;;;;;;6.63;6.03;;;;;;;18.40;61.19;94885.13;5044541;28;20253;-60
2023/05/24 04:15:58;;;;;;;8.27;6.72;;;;;;;18.72;60.09;94871.84;5043623;28;20231;-60
2023/05/24 04:18:26;;;;;;;6.60;5.97;;;;;;;19.22;58.69;94881.22;5044874;28;20287;-60
2023/05/24 04:20:53;;;;;;;7.93;6.60;;;;;;;19.77;57.28;94888.47;5044169;28;20886;-61
2023/05/24 04:23:19;;;;;;;11.07;5.90;;;;;;;20.37;55.38;94877.16;5043258;28;20288;-59
2023/05/24 04:25:46;;;;;;;8.77;5.82;;;;;;;21.11;52.62;94882.69;5043605;28;20324;-60
2023/05/24 04:28:14;;;;;;;10.93;5.70;;;;;;;21.81;50.57;94877.16;5044155;28;20297;-60
2023/05/24 04:30:40;;;;;;;7.25;5.82;;;;;;;22.46;48.97;94870.97;5042812;28;20230;-60
2023/05/24 04:33:07;;;;;;;7.38;5.03;;;;;;;23.21;47.75;94870.63;5043984;28;20210;-60
2023/05/24 04:35:35;;;;;;;7.65;5.28;;;;;;;24.02;44.99;94872.09;5042997;28;20301;-61
2023/05/24 04:38:02;;;;;;;5.95;5.35;;;;;;;24.48;43.60;94875.78;5044304;28;20787;-61
2023/05/24 04:40:29;;;;;;;5.38;4.97;;;;;;;24.97;42.90;94875.53;5044034;28;20348;-61
2023/05/24 04:42:55;;;;;;;5.38;4.93;;;;;;;25.36;41.69;94883.13;5042834;28;20689;-62
2023/05/24 04:45:22;;;;;;;6.25;4.88;;;;;;;25.40;41.60;94887.09;5042372;28;20202;-63
2023/05/24 04:47:49;;;;;;;6.35;4.97;;;;;;;25.22;41.94;94888.84;5042563;28;20293;-61
2023/05/24 04:50:16;;;;;;;6.82;4.85;;;;;;;25.02;41.80;94899.28;5041844;28;20278;-62
2023/05/24 04:52:44;;;;;;;10.82;5.22;;;;;;;24.99;41.96;94896.97;5041406;28;20203;-67
2023/05/24 04:55:11;;;;;;;7.15;5.32;;;;;;;24.80;41.97;94894.41;5041899;28;20275;-62
2023/05/24 04:57:37;;;;;;;8.50;5.60;;;;;;;24.69;42.06;94897.19;5041096;28;20298;-62
2023/05/24 05:00:06;;;;;;;5.80;5.28;;;;;;;24.69;41.95;94889.41;5042179;28;20412;-65
2023/05/24 05:02:33;;;;;;;5.50;4.88;;;;;;;24.68;42.30;94895.56;5041252;28;20226;-61
2023/05/24 05:05:00;;;;;;;5.35;4.95;;;;;;;24.77;42.12;94895.53;5042391;28;20592;-62
2023/05/24 05:07:26;;;;;;;5.75;4.53;;;;;;;24.81;42.36;94905.63;5043765;28;20222;-63
2023/05/24 05:09:55;;;;;;;6.85;4.97;;;;;;;24.63;42.32;94902.97;5043714;28;20287;-66
2023/05/24 05:12:21;;;;;;;6.78;6.03;;;;;;;24.54;43.02;94903.78;5042931;28;20213;-62
2023/05/24 05:14:49;;;;;;;5.68;5.05;;;;;;;24.44;42.90;94905.59;5042095;28;20329;-61
2023/05/24 05:17:16;;;;;;;5.65;5.07;;;;;;;24.79;42.19;94902.34;5042513;28;20291;-63
2023/05/24 05:19:42;;;;;;;8.32;6.25;;;;;;;24.91;42.16;94904.66;5042734;28;20217;-61
2023/05/24 05:22:09;;;;;;;9.98;6.05;;;;;;;24.79;42.64;94910.16;5042331;28;20302;-61
2023/05/24 05:24:36;;;;;;;6.38;5.85;;;;;;;24.74;42.57;94905.41;5042858;28;20210;-61
2023/05/24 05:27:05;;;;;;;7.05;6.30;;;;;;;24.68;42.37;94905.97;5041645;28;20695;-60
2023/05/24 05:29:31;;;;;;;8.23;6.35;;;;;;;24.35;43.45;94908.06;5042450;28;20383;-62
2023/05/24 05:31:58;;;;;;;6.40;5.93;;;;;;;23.90;44.62;94904.34;5043026;28;20716;-60
2023/05/24 05:34:25;;;;;;;10.23;6.40;;;;;;;23.73;45.05;94909.28;5043301;28;20341;-61
2023/05/24 05:36:51;;;;;;;9.18;5.80;;;;;;;24.48;43.47;94910.38;5041853;28;20202;-60
2023/05/24 05:39:18;;;;;;;7.00;6.40;;;;;;;25.48;41.24;94910.59;5042784;28;20312;-60
2023/05/24 05:41:44;;;;;;;8.88;6.22;;;;;;;26.05;40.21;94905.97;5042678;28;20225;-61
2023/05/24 05:44:13;;;;;;;6.60;6.00;;;;;;;25.62;41.15;94907.50;5042574;28;20293;-61
2023/05/24 05:46:42;;;;;;;11.38;5.72;;;;;;;25.05;41.79;94904.22;5041917;28;20300;-60
2023/05/24 05:49:09;;;;;;;18.55;15.35;;;;;;;24.37;42.74;94913.94;5043353;28;20213;-60
2023/05/24 05:51:37;;;;;;;9.73;6.63;;;;;;;24.45;43.95;94925.41;5042263;28;20632;-61
2023/05/24 05:54:04;;;;;;;12.82;8.32;;;;;;;25.37;41.38;94909.00;5041388;28;20381;-62
2023/05/24 05:56:30;;;;;;;7.47;6.63;;;;;;;26.00;40.61;94908.22;5042716;28;20645;-62
2023/05/24 05:58:57;;;;;;;7.93;6.32;;;;;;;27.08;38.73;94913.13;5041550;28;21112;-60
2023/05/24 06:01:25;;;;;;;10.70;6.68;;;;;;;28.69;35.32;94911.06;5042696;28;20592;-59
2023/05/24 06:03:52;;;;;;;16.38;12.20;;;;;;;29.97;33.04;94908.16;5042337;28;20328;-60
2023/05/24 06:06:18;;;;;;;9.30;7.75;;;;;;;31.59;30.67;94905.88;5041995;28;21602;-62
2023/05/24 06:08:45;;;;;;;13.43;9.00;;;;;;;34.03;27.72;94907.78;5041905;28;20367;-61
2023/05/24 06:11:12;;;;;;;12.00;8.20;;;;;;;37.02;24.27;94907.50;5042389;28;20317;-61
2023/05/24 06:13:38;;;;;;;8.52;7.07;;;;;;;39.36;20.93;94897.75;5042018;28;20345;-61
2023/05/24 06:16:07;;;;;;;12.32;6.53;;;;;;;40.39;19.46;94897.69;5041423;28;20298;-63
2023/05/24 06:18:35;;;;;;;7.88;7.15;;;;;;;41.57;19.17;94901.13;5041445;28;20233;-63
2023/05/24 06:21:02;;;;;;;12.88;10.40;;;;;;;43.08;17.79;94901.03;5042985;28;20348;-63
2023/05/24 06:23:28;;;;;;;12.05;9.85;;;;;;;43.82;17.27;94897.44;5041470;28;20226;-63
2023/05/24 06:25:55;;;;;;;12.43;9.25;;;;;;;44.58;16.50;94891.47;5042881;28;20209;-64
2023/05/24 06:28:22;;;;;;;12.57;9.60;;;;;;;45.55;15.43;94890.28;5041272;28;20281;-62
2023/05/24 06:30:48;;;;;;;16.45;8.10;;;;;;;45.96;15.46;94882.09;5042098;28;21298;-63
2023/05/24 06:33:15;;;;;;;37.15;28.60;;;;;;;46.54;14.93;94879.56;5041440;28;20241;-62
2023/05/24 06:35:43;;;;;;;9.32;7.43;;;;;;;47.78;13.78;94887.00;5042386;28;20250;-63
2023/05/24 06:38:10;;;;;;;7.32;6.53;;;;;;;48.08;13.80;94886.59;5041498;28;20225;-64
2023/05/24 06:40:37;;;;;;;9.13;5.63;;;;;;;48.28;13.43;94891.72;5041822;28;20289;-63
2023/05/24 06:43:04;;;;;;;8.65;7.30;;;;;;;47.91;13.27;94886.31;5042362;28;20229;-63
2023/05/24 06:45:30;;;;;;;10.52;8.82;;;;;;;46.90;13.89;94878.22;5042059;28;21477;-63
2023/05/24 06:47:57;;;;;;;21.67;19.65;;;;;;;46.47;14.33;94873.72;5040521;28;20334;-63
2023/05/24 06:50:23;;;;;;;8.02;7.28;;;;;;;46.39;14.20;94885.88;5040255;28;20329;-64
2023/05/24 06:52:51;;;;;;;9.15;7.15;;;;;;;47.16;14.01;94881.50;5039031;28;20726;-64
2023/05/24 06:55:19;;;;;;;10.95;6.68;;;;;;;47.00;13.86;94880.81;5040024;28;20294;-63
2023/05/24 06:57:46;;;;;;;10.15;7.55;;;;;;;46.66;13.93;94877.34;5039923;28;20289;-63
2023/05/24 07:00:13;;;;;;;8.07;7.30;;;;;;;47.08;13.87;94868.66;5040689;28;20234;-63
2023/05/24 07:02:40;;;;;;;7.78;7.18;;;;;;;47.84;13.63;94878.59;5040653;28;20214;-63
2023/05/24 07:12:36;;;;;;;6.95;5.93;;;;;;;49.22;13.03;94870.00;5052531;28;20992;-64
2023/05/24 07:15:03;;;;;;;11.15;6.10;;;;;;;49.02;13.03;94873.84;5059651;28;20225;-64
2023/05/24 07:17:30;;;;;;;6.38;5.82;;;;;;;48.67;12.95;94860.97;5060096;28;20284;-64
2023/05/24 07:19:57;;;;;;;6.30;5.78;;;;;;;49.01;12.85;94872.22;5059341;28;20205;-64
2023/05/24 07:22:26;;;;;;;6.57;5.90;;;;;;;48.79;13.01;94877.47;5059730;28;20292;-64
2023/05/24 07:24:52;;;;;;;7.30;6.70;;;;;;;48.68;13.10;94873.34;5059492;28;20201;-64
2023/05/24 07:27:19;;;;;;;6.85;5.97;;;;;;;49.20;12.44;94874.09;5060369;28;20266;-64
2023/05/24 07:29:48;;;;;;;6.15;5.75;;;;;;;49.03;12.92;94878.13;5059371;28;20297;-65
2023/05/24 07:32:15;;;;;;;7.43;6.35;;;;;;;49.31;12.28;94865.50;5059846;28;20239;-64
2023/05/24 07:34:42;;;;;;;6.07;5.65;;;;;;;49.56;12.69;94882.31;5058365;28;20213;-63
2023/05/24 07:37:09;;;;;;;6.60;5.97;;;;;;;49.82;12.16;94890.69;5060207;28;20231;-64
2023/05/24 07:39:36;;;;;;;6.30;5.90;;;;;;;50.58;12.22;94880.91;5059484;28;20209;-63
2023/05/24 07:42:03;;;;;;;6.53;5.50;;;;;;;50.58;11.82;94875.50;5059331;28;20655;-64
2023/05/24 07:44:30;;;;;;;7.15;5.90;;;;;;;50.43;12.35;94881.28;5059080;28;20798;-64
2023/05/24 07:46:58;;;;;;;5.72;5.38;;;;;;;50.08;11.88;94875.56;5059296;28;20753;-64
2023/05/24 07:49:25;;;;;;;5.38;5.07;;;;;;;49.76;12.10;94878.41;5060262;28;20426;-65
2023/05/24 07:51:51;;;;;;;9.55;5.03;;;;;;;49.95;11.82;94874.50;5056302;28;20337;-64
2023/05/24 07:54:18;;;;;;;8.52;6.70;;;;;;;49.92;12.12;94869.72;5055358;28;20753;-64
2023/05/24 07:56:45;;;;;;;6.90;6.28;;;;;;;49.85;12.44;94874.69;5056821;28;20210;-63
2023/05/24 07:59:12;;;;;;;5.32;4.88;;;;;;;50.05;11.96;94865.34;5056849;28;20212;-63
2023/05/24 08:01:39;;;;;;;7.03;4.53;;;;;;;49.34;12.35;94858.69;5056649;28;20205;-64
2023/05/24 08:04:08;;;;;;;5.03;4.55;;;;;;;49.17;12.82;94863.88;5056074;28;20237;-64
2023/05/24 08:06:35;;;;;;;5.63;4.60;;;;;;;49.75;12.21;94868.72;5054420;28;20221;-64
2023/05/24 08:09:02;;;;;;;5.93;4.18;;;;;;;50.48;11.74;94864.94;5054844;28;20228;-64
2023/05/24 08:11:29;;;;;;;5.70;5.00;;;;;;;50.68;11.58;94870.69;5055602;28;20714;-64
2023/05/24 08:13:56;;;;;;;5.15;4.65;;;;;;;51.08;10.81;94867.25;5056571;28;20225;-64
2023/05/24 08:16:23;;;;;;;6.35;4.63;;;;;;;50.15;11.12;94867.03;5055062;28;20295;-64
2023/05/24 08:18:50;;;;;;;5.40;3.92;;;;;;;50.29;11.40;94868.63;5055478;28;20302;-64
2023/05/24 08:21:18;;;;;;;7.75;4.60;;;;;;;50.33;11.17;94858.00;5055594;28;20326;-64
2023/05/24 08:23:45;;;;;;;3.95;3.70;;;;;;;49.90;11.24;94866.50;5042298;28;20297;-65
2023/05/24 08:26:12;;;;;;;7.65;4.22;;;;;;;50.33;11.59;94858.78;5042086;28;20289;-65
2023/05/24 08:28:39;;;;;;;6.68;4.03;;;;;;;50.90;11.03;94860.94;5041191;28;20263;-64
2023/05/24 08:31:06;;;;;;;7.15;3.92;;;;;;;51.47;9.90;94858.38;5042565;28;20320;-63
2023/05/24 08:33:32;;;;;;;3.95;3.65;;;;;;;51.02;10.66;94861.97;5042768;28;20205;-64
2023/05/24 08:35:59;;;;;;;9.55;4.18;;;;;;;49.79;11.12;94859.69;5042287;28;20206;-64
2023/05/24 08:38:28;;;;;;;6.00;4.18;;;;;;;48.17;12.16;94857.94;5041350;28;20293;-63
2023/05/24 08:40:55;;;;;;;8.32;4.95;;;;;;;48.30;12.14;94861.78;5040589;28;20289;-63
2023/05/24 08:43:23;;;;;;;4.40;4.10;;;;;;;48.81;11.60;94859.09;5041312;28;20301;-63
2023/05/24 08:45:51;;;;;;;5.00;4.32;;;;;;;49.18;11.60;94849.28;5042339;28;20681;-65
2023/05/24 08:48:19;;;;;;;4.05;3.63;;;;;;;49.89;10.45;94850.56;5039368;28;20396;-65
2023/05/24 08:50:46;;;;;;;8.43;5.65;;;;;;;48.52;10.62;94853.09;5039705;28;20363;-65
2023/05/24 08:53:14;;;;;;;4.97;4.47;;;;;;;47.01;11.29;94852.84;5040273;28;20293;-65
2023/05/24 08:55:43;;;;;;;4.10;3.47;;;;;;;45.49;12.49;94850.31;5039405;28;20206;-64
2023/05/24 08:58:10;;;;;;;4.40;4.00;;;;;;;46.13;12.99;94841.41;5039505;28;20865;-64
2023/05/24 09:00:37;;;;;;;4.03;3.65;;;;;;;47.30;12.44;94843.91;5040703;28;20301;-63
2023/05/24 09:03:05;;;;;;;3.83;3.63;;;;;;;47.79;11.54;94851.72;5040167;28;20285;-64
2023/05/24 09:05:33;;;;;;;5.65;3.95;;;;;;;48.76;11.07;94837.59;5041654;28;20213;-64
2023/05/24 09:08:01;;;;;;;4.45;3.83;;;;;;;49.09;11.20;94832.16;5040976;28;20297;-66
2023/05/24 09:10:29;;;;;;;4.80;3.80;;;;;;;48.29;11.43;94844.81;5041538;28;20325;-64
2023/05/24 09:12:58;;;;;;;3.65;3.45;;;;;;;48.18;10.91;94846.06;5040148;28;20262;-64
2023/05/24 09:15:24;;;;;;;6.18;3.78;;;;;;;46.13;12.00;94847.59;5041466;28;20672;-64
2023/05/24 09:17:51;;;;;;;4.10;3.60;;;;;;;44.65;12.63;94854.47;5042042;28;20333;-65
2023/05/24 09:20:18;;;;;;;3.88;3.55;;;;;;;43.70;13.68;94844.13;5040674;28;20282;-64
2023/05/24 09:22:50;;;;;;;7.25;3.75;;;;;;;43.89;13.80;94840.97;5039204;28;20483;-63
2023/05/24 09:25:20;;;;;;;3.72;3.42;;;;;;;43.49;13.48;94842.44;5038587;28;20221;-63
2023/05/24 09:27:50;;;;;;;3.90;3.55;;;;;;;42.34;14.83;94836.00;5041233;28;20230;-63
2023/05/24 09:30:19;;;;;;;4.78;4.00;;;;;;;42.04;14.63;94834.72;5040364;28;20237;-63
2023/05/24 09:32:57;;;;;;;5.97;3.50;;;;;;;40.73;15.73;94836.44;5041288;28;20336;-63
2023/05/24 09:35:25;;;;;;;4.00;3.70;;;;;;;39.67;16.21;94833.53;5040705;28;20292;-64
2023/05/24 09:37:54;;;;;;;5.65;3.80;;;;;;;38.35;17.89;94840.44;5040612;28;20321;-63
2023/05/24 09:40:21;;;;;;;4.80;3.00;;;;;;;35.71;17.72;94837.75;5041395;28;20234;-62
2023/05/24 09:45:29;;;;;;;3.10;2.90;;;;;;;32.16;20.77;94847.28;5103717;27;20343;-62
2023/05/24 09:47:56;;;;;;;3.10;2.80;;;;;;;30.21;23.71;94851.34;5109466;28;20224;-61
2023/05/24 09:50:23;;;;;;;3.72;2.92;;;;;;;28.80;24.69;94850.53;5102287;28;20315;-62
2023/05/24 09:52:53;;;;;;;5.07;2.92;;;;;;;28.43;26.30;94851.13;5123885;28;20235;-62
2023/05/24 09:55:20;;;;;;;6.97;2.50;;;;;;;27.87;25.38;94846.69;5124964;27;20598;-62
2023/05/24 09:57:51;;;;;;;3.13;2.92;;;;;;;27.42;25.56;94858.31;5112913;28;20245;-61
2023/05/24 10:00:22;;;;;;;5.30;2.53;;;;;;;27.32;26.75;94844.56;5109338;28;20288;-62
2023/05/24 10:03:01;;;;;;;3.10;2.80;;;;;;;27.55;27.18;94842.19;5127844;28;20253;-60
2023/05/24 10:05:29;;;;;;;3.50;3.28;;;;;;;27.90;27.69;94843.75;5114025;28;20206;-60
2023/05/24 10:07:56;;;;;;;3.15;2.83;;;;;;;27.76;26.22;94838.16;5114014;28;20228;-61
2023/05/24 10:10:24;;;;;;;3.05;2.47;;;;;;;27.46;25.76;94846.59;5124372;27;20750;-61
2023/05/24 10:12:52;;;;;;;2.70;2.53;;;;;;;26.97;26.82;94836.00;5121779;28;20279;-61
2023/05/24 10:15:18;;;;;;;3.10;2.80;;;;;;;26.77;26.76;94837.13;5120967;28;20221;-62
2023/05/24 10:17:45;;;;;;;6.18;3.47;;;;;;;26.80;26.98;94842.06;5120714;28;20236;-61
2023/05/24 10:20:14;;;;;;;2.88;2.72;;;;;;;27.03;27.40;94840.56;5114916;28;20240;-61
2023/05/24 10:22:44;;;;;;;7.72;3.05;;;;;;;27.08;28.19;94832.25;5121794;28;20278;-61
2023/05/24 10:25:16;;;;;;;4.10;3.40;;;;;;;27.40;27.42;94836.78;5102162;28;21140;-61
2023/05/24 10:27:45;;;;;;;2.83;2.63;;;;;;;27.22;28.15;94825.66;5086751;28;20698;-64
2023/05/24 10:30:17;;;;;;;3.60;2.80;;;;;;;26.98;27.67;94836.78;5087603;28;20706;-62
2023/05/24 10:32:45;;;;;;;3.53;2.83;;;;;;;26.88;29.59;94834.28;5084078;28;20205;-59
2023/05/24 10:35:14;;;;;;;3.78;3.33;;;;;;;26.87;28.10;94827.44;5085930;28;20640;-61
2023/05/24 10:37:42;;;;;;;3.25;3.05;;;;;;;26.97;28.37;94833.38;5086625;28;20752;-62
2023/05/24 10:40:17;;;;;;;4.03;3.63;;;;;;;26.88;28.04;94823.84;5087529;28;20668;-64
2023/05/24 10:42:44;;;;;;;6.90;6.30;;;;;;;27.10;30.12;94818.09;5087240;28;20291;-60
2023/05/24 10:45:31;;;;;;;4.97;3.88;;;;;;;27.06;28.85;94816.78;5085992;28;20240;-62
2023/05/24 10:48:16;;;;;;;7.10;5.20;;;;;;;27.10;28.96;94812.88;5087714;28;20700;-60
2023/05/24 10:50:44;;;;;;;8.27;7.55;;;;;;;27.32;30.16;94810.66;5085088;28;20726;-62
2023/05/24 10:53:12;;;;;;;4.93;4.63;;;;;;;27.58;29.46;94811.41;5086584;28;20706;-62
2023/05/24 10:55:52;;;;;;;13.43;10.35;;;;;;;27.77;29.46;94807.66;5078986;28;20202;-64
2023/05/24 10:58:19;;;;;;;3.55;3.25;;;;;;;27.50;28.46;94808.72;5074532;28;20991;-64
2023/05/24 11:00:47;;;;;;;14.20;12.52;;;;;;;27.41;29.36;94804.50;5072474;28;20813;-63
2023/05/24 11:03:22;;;;;;;7.90;4.35;;;;;;;27.52;30.15;94806.78;5072943;28;21971;-64
2023/05/24 11:05:53;;;;;;;11.85;10.68;;;;;;;27.59;29.35;94786.09;5074244;28;20197;-64
2023/05/24 11:08:31;;;;;;;8.95;6.93;;;;;;;27.80;30.25;94786.44;5074085;28;20205;-64
2023/05/24 11:11:08;;;;;;;4.15;3.67;;;;;;;27.91;28.45;94800.97;5073719;28;20205;-59
2023/05/24 11:13:36;;;;;;;3.65;3.42;;;;;;;27.64;27.12;94796.88;5072702;28;20224;-61
2023/05/24 11:16:03;;;;;;;4.18;3.13;;;;;;;27.19;27.66;94794.66;5074413;28;20212;-64
2023/05/24 11:18:31;;;;;;;5.70;3.42;;;;;;;26.81;28.39;94801.16;5073919;28;20213;-63
2023/05/24 11:21:00;;;;;;;8.75;8.05;;;;;;;26.81;29.63;94788.94;5072562;28;20206;-60
2023/05/24 11:23:27;;;;;;;4.38;3.97;;;;;;;27.09;29.45;94790.38;5076506;28;20206;-59
2023/05/24 11:25:53;;;;;;;4.45;3.40;;;;;;;27.19;28.82;94790.25;5074616;28;20230;-63
2023/05/24 11:28:22;;;;;;;3.88;3.00;;;;;;;27.05;29.04;94788.25;5073610;28;20292;-62
2023/05/24 11:30:49;;;;;;;3.22;3.03;;;;;;;26.66;30.34;94764.44;5071809;28;20237;-65
2023/05/24 11:33:17;;;;;;;9.60;3.15;;;;;;;26.63;29.33;94786.41;5076344;28;20259;-61
2023/05/24 11:35:44;;;;;;;5.40;3.05;;;;;;;26.22;30.36;94785.34;5072881;28;20686;-62
2023/05/24 11:38:13;;;;;;;4.93;3.80;;;;;;;26.09;30.60;94787.53;5072379;28;20797;-64
2023/05/24 11:40:43;;;;;;;3.55;3.25;;;;;;;26.21;30.62;94782.91;5071116;28;20300;-65
2023/05/24 11:43:13;;;;;;;4.32;3.75;;;;;;;26.39;30.69;94768.88;5072382;28;20202;-64
2023/05/24 11:45:41;;;;;;;4.85;3.58;;;;;;;26.73;31.08;94775.84;5071594;28;20233;-63